THY1AR EDDF-LTFM
Flight info
| Callsign | THY1AR |
|---|---|
| Flight time | 2h 24m |
| Altitude | 31000 |
| Route | CINDY8S/18 CINDY Z74 HAREM DCT ASLEP DCT TAKUT L603 BESNI/N0467F370 L605 MIQ DCT ALUTU DCT BIBAG DCT ESEGA DCT VELOM DCT GOTAR DCT NALOX DCT BABIT DCT ESIRI DCT ETIDA T390 RILEX |
| Aircraft | B77W/H-SDE1E2E3FGHIJ2J3J4J5M1RWXY/LB1D1 |
Departure
| Time | 2026-04-15 11:52 |
|---|---|
| Airport | Frankfurt Main Airport (EDDF) |
Arrival
| Time | 2026-04-15 14:17 |
|---|---|
| Airport | İstanbul Airport (LTFM) |
| Time | Latitude | Longitude | Altitude | Speed | Heading |
|---|---|---|---|---|---|
| 2026-04-15 11:19 | 50.04594 | 8.57050 | 368 ft | 0 kts | 59° |
| 2026-04-15 11:34 | 50.04593 | 8.57049 | 362 ft | 1 kts | 59° |
| 2026-04-15 11:34 | 50.04585 | 8.57027 | 369 ft | 3 kts | 60° |
| 2026-04-15 11:34 | 50.04575 | 8.56999 | 367 ft | 3 kts | 60° |
| 2026-04-15 11:34 | 50.04565 | 8.56972 | 364 ft | 3 kts | 59° |
| 2026-04-15 11:35 | 50.04554 | 8.56945 | 364 ft | 3 kts | 58° |
| 2026-04-15 11:35 | 50.04544 | 8.56919 | 366 ft | 3 kts | 54° |
| 2026-04-15 11:35 | 50.04531 | 8.56894 | 364 ft | 3 kts | 43° |
| 2026-04-15 11:35 | 50.04516 | 8.56877 | 364 ft | 3 kts | 12° |
| 2026-04-15 11:36 | 50.04496 | 8.56871 | 364 ft | 3 kts | 15° |
| 2026-04-15 11:36 | 50.04478 | 8.56861 | 364 ft | 3 kts | 27° |
| 2026-04-15 11:36 | 50.04461 | 8.56845 | 366 ft | 3 kts | 47° |
| 2026-04-15 11:36 | 50.04450 | 8.56822 | 366 ft | 2 kts | 70° |
| 2026-04-15 11:37 | 50.04444 | 8.56794 | 367 ft | 3 kts | 70° |
| 2026-04-15 11:37 | 50.04437 | 8.56765 | 365 ft | 3 kts | 70° |
| 2026-04-15 11:37 | 50.04430 | 8.56735 | 365 ft | 3 kts | 70° |
| 2026-04-15 11:37 | 50.04427 | 8.56721 | 369 ft | 0 kts | 70° |
| 2026-04-15 11:40 | 50.04428 | 8.56726 | 369 ft | 3 kts | 70° |
| 2026-04-15 11:41 | 50.04438 | 8.56798 | 366 ft | 9 kts | 92° |
| 2026-04-15 11:41 | 50.04397 | 8.56837 | 369 ft | 7 kts | 174° |
| 2026-04-15 11:41 | 50.04332 | 8.56825 | 368 ft | 14 kts | 189° |
| 2026-04-15 11:41 | 50.04243 | 8.56746 | 370 ft | 16 kts | 238° |
| 2026-04-15 11:42 | 50.04198 | 8.56574 | 363 ft | 18 kts | 250° |
| 2026-04-15 11:42 | 50.04155 | 8.56393 | 365 ft | 18 kts | 250° |
| 2026-04-15 11:42 | 50.04112 | 8.56213 | 362 ft | 18 kts | 250° |
| 2026-04-15 11:42 | 50.04069 | 8.56032 | 361 ft | 18 kts | 249° |
| 2026-04-15 11:43 | 50.04025 | 8.55852 | 359 ft | 18 kts | 250° |
| 2026-04-15 11:43 | 50.03982 | 8.55672 | 358 ft | 18 kts | 249° |
| 2026-04-15 11:43 | 50.03939 | 8.55492 | 359 ft | 18 kts | 250° |
| 2026-04-15 11:43 | 50.03896 | 8.55310 | 359 ft | 18 kts | 250° |
| 2026-04-15 11:44 | 50.03854 | 8.55130 | 362 ft | 18 kts | 250° |
| 2026-04-15 11:44 | 50.03810 | 8.54950 | 358 ft | 18 kts | 249° |
| 2026-04-15 11:44 | 50.03766 | 8.54769 | 357 ft | 18 kts | 250° |
| 2026-04-15 11:44 | 50.03723 | 8.54585 | 355 ft | 19 kts | 249° |
| 2026-04-15 11:45 | 50.03675 | 8.54388 | 357 ft | 20 kts | 249° |
| 2026-04-15 11:45 | 50.03628 | 8.54189 | 352 ft | 20 kts | 250° |
| 2026-04-15 11:45 | 50.03580 | 8.53991 | 353 ft | 20 kts | 250° |
| 2026-04-15 11:45 | 50.03533 | 8.53791 | 354 ft | 20 kts | 250° |
| 2026-04-15 11:46 | 50.03488 | 8.53602 | 352 ft | 16 kts | 249° |
| 2026-04-15 11:46 | 50.03448 | 8.53439 | 353 ft | 16 kts | 250° |
| 2026-04-15 11:46 | 50.03409 | 8.53275 | 348 ft | 16 kts | 250° |
| 2026-04-15 11:46 | 50.03370 | 8.53112 | 337 ft | 16 kts | 249° |
| 2026-04-15 11:47 | 50.03331 | 8.52948 | 336 ft | 16 kts | 250° |
| 2026-04-15 11:47 | 50.03304 | 8.52838 | 334 ft | 10 kts | 249° |
| 2026-04-15 11:47 | 50.03289 | 8.52773 | 335 ft | 1 kts | 250° |
| 2026-04-15 11:48 | 50.03288 | 8.52770 | 335 ft | 1 kts | 250° |
| 2026-04-15 11:48 | 50.03287 | 8.52767 | 336 ft | 0 kts | 250° |
| 2026-04-15 11:48 | 50.03285 | 8.52758 | 336 ft | 3 kts | 250° |
| 2026-04-15 11:48 | 50.03272 | 8.52702 | 337 ft | 7 kts | 250° |
| 2026-04-15 11:49 | 50.03250 | 8.52633 | 338 ft | 7 kts | 235° |
| 2026-04-15 11:49 | 50.03206 | 8.52597 | 337 ft | 7 kts | 189° |
| 2026-04-15 11:49 | 50.03170 | 8.52596 | 338 ft | 0 kts | 179° |
| 2026-04-15 11:52 | 50.02992 | 8.52598 | 339 ft | 66 kts | 179° |
| 2026-04-15 11:52 | 50.02244 | 8.52605 | 339 ft | 146 kts | 180° |
| 2026-04-15 11:52 | 50.01020 | 8.52624 | 454 ft | 194 kts | 179° |
| 2026-04-15 11:52 | 49.99658 | 8.52617 | 1253 ft | 195 kts | 178° |
| 2026-04-15 11:53 | 49.98332 | 8.52648 | 2304 ft | 191 kts | 179° |
| 2026-04-15 11:53 | 49.96957 | 8.52957 | 2565 ft | 213 kts | 149° |
| 2026-04-15 11:53 | 49.95888 | 8.54655 | 2849 ft | 234 kts | 119° |
| 2026-04-15 11:53 | 49.95067 | 8.56970 | 3333 ft | 251 kts | 118° |
| 2026-04-15 11:54 | 49.94240 | 8.59374 | 4193 ft | 254 kts | 111° |
| 2026-04-15 11:54 | 49.93960 | 8.62090 | 4978 ft | 258 kts | 91° |
| 2026-04-15 11:54 | 49.93900 | 8.64910 | 5779 ft | 265 kts | 94° |
| 2026-04-15 11:54 | 49.93748 | 8.67784 | 6616 ft | 269 kts | 103° |
| 2026-04-15 11:55 | 49.92902 | 8.70377 | 7289 ft | 274 kts | 136° |
| 2026-04-15 11:55 | 49.91405 | 8.72168 | 8089 ft | 274 kts | 147° |
| 2026-04-15 11:55 | 49.89826 | 8.73887 | 8877 ft | 280 kts | 146° |
| 2026-04-15 11:55 | 49.88318 | 8.75802 | 9619 ft | 284 kts | 130° |
| 2026-04-15 11:56 | 49.87292 | 8.78456 | 10244 ft | 293 kts | 118° |
| 2026-04-15 11:56 | 49.86300 | 8.81361 | 10519 ft | 319 kts | 120° |
| 2026-04-15 11:56 | 49.85182 | 8.84495 | 10731 ft | 346 kts | 120° |
| 2026-04-15 11:56 | 49.83975 | 8.87826 | 11332 ft | 360 kts | 120° |
| 2026-04-15 11:57 | 49.82727 | 8.91260 | 12177 ft | 369 kts | 120° |
| 2026-04-15 11:57 | 49.80175 | 8.98281 | 14289 ft | 379 kts | 120° |
| 2026-04-15 11:57 | 49.78871 | 9.01865 | 15252 ft | 385 kts | 120° |
| 2026-04-15 11:58 | 49.77562 | 9.05451 | 16195 ft | 391 kts | 120° |
| 2026-04-15 11:58 | 49.76240 | 9.09159 | 17108 ft | 396 kts | 116° |
| 2026-04-15 11:58 | 49.75362 | 9.13225 | 17888 ft | 405 kts | 103° |
| 2026-04-15 11:58 | 49.74757 | 9.17504 | 18720 ft | 409 kts | 107° |
| 2026-04-15 11:59 | 49.73506 | 9.21444 | 19466 ft | 412 kts | 128° |
| 2026-04-15 11:59 | 49.71568 | 9.24735 | 20312 ft | 415 kts | 135° |
| 2026-04-15 11:59 | 49.69541 | 9.27975 | 21029 ft | 424 kts | 134° |
| 2026-04-15 11:59 | 49.67535 | 9.31349 | 21806 ft | 430 kts | 133° |
| 2026-04-15 12:00 | 49.65539 | 9.34826 | 22599 ft | 435 kts | 132° |
| 2026-04-15 12:00 | 49.63590 | 9.38442 | 23350 ft | 441 kts | 126° |
| 2026-04-15 12:00 | 49.61941 | 9.42465 | 24072 ft | 446 kts | 118° |
| 2026-04-15 12:00 | 49.60587 | 9.46794 | 24715 ft | 451 kts | 111° |
| 2026-04-15 12:01 | 49.59556 | 9.51378 | 25358 ft | 454 kts | 107° |
| 2026-04-15 12:01 | 49.58602 | 9.56037 | 25973 ft | 459 kts | 106° |
| 2026-04-15 12:01 | 49.57634 | 9.60757 | 26542 ft | 464 kts | 106° |
| 2026-04-15 12:01 | 49.56637 | 9.65523 | 27100 ft | 470 kts | 106° |
| 2026-04-15 12:02 | 49.55612 | 9.70321 | 27700 ft | 474 kts | 106° |
| 2026-04-15 12:02 | 49.54566 | 9.75160 | 28276 ft | 478 kts | 106° |
| 2026-04-15 12:02 | 49.53354 | 9.79965 | 28812 ft | 485 kts | 112° |
| 2026-04-15 12:02 | 49.51774 | 9.84592 | 29321 ft | 492 kts | 118° |
| 2026-04-15 12:03 | 49.49890 | 9.89030 | 29862 ft | 499 kts | 124° |
| 2026-04-15 12:03 | 49.47714 | 9.93207 | 30348 ft | 504 kts | 127° |
| 2026-04-15 12:03 | 49.45458 | 9.97366 | 30732 ft | 508 kts | 127° |
| 2026-04-15 12:03 | 49.43195 | 10.01549 | 31108 ft | 511 kts | 127° |
| 2026-04-15 12:04 | 49.40935 | 10.05781 | 31543 ft | 513 kts | 126° |
| 2026-04-15 12:04 | 49.38688 | 10.10028 | 32059 ft | 512 kts | 126° |
| 2026-04-15 12:04 | 49.36449 | 10.14262 | 32617 ft | 510 kts | 126° |
| 2026-04-15 12:04 | 49.34206 | 10.18478 | 33112 ft | 510 kts | 126° |
| 2026-04-15 12:05 | 49.31993 | 10.22624 | 33632 ft | 509 kts | 126° |
| 2026-04-15 12:05 | 49.29748 | 10.26821 | 34109 ft | 509 kts | 126° |
| 2026-04-15 12:05 | 49.27472 | 10.31075 | 34551 ft | 509 kts | 125° |
| 2026-04-15 12:05 | 49.25263 | 10.35196 | 35026 ft | 507 kts | 125° |
| 2026-04-15 12:06 | 49.22985 | 10.39297 | 35494 ft | 506 kts | 129° |
| 2026-04-15 12:06 | 49.20488 | 10.43114 | 35923 ft | 507 kts | 133° |
| 2026-04-15 12:06 | 49.17928 | 10.46825 | 36307 ft | 507 kts | 133° |
| 2026-04-15 12:06 | 49.15382 | 10.50542 | 36708 ft | 506 kts | 132° |
| 2026-04-15 12:07 | 49.12862 | 10.54274 | 37098 ft | 504 kts | 132° |
| 2026-04-15 12:07 | 49.10345 | 10.58021 | 37310 ft | 507 kts | 132° |
| 2026-04-15 12:07 | 49.07809 | 10.61791 | 37266 ft | 510 kts | 132° |
| 2026-04-15 12:08 | 49.02740 | 10.69273 | 37257 ft | 504 kts | 132° |
| 2026-04-15 12:08 | 48.97713 | 10.76634 | 37265 ft | 500 kts | 132° |
| 2026-04-15 12:09 | 48.92703 | 10.83962 | 37248 ft | 499 kts | 132° |
| 2026-04-15 12:09 | 48.87702 | 10.91281 | 37248 ft | 499 kts | 132° |
| 2026-04-15 12:10 | 48.82698 | 10.98613 | 37243 ft | 501 kts | 132° |
| 2026-04-15 12:10 | 48.77663 | 11.05961 | 37217 ft | 502 kts | 132° |
| 2026-04-15 12:11 | 48.72621 | 11.13290 | 37208 ft | 502 kts | 132° |
| 2026-04-15 12:11 | 48.67611 | 11.20655 | 37209 ft | 500 kts | 127° |
| 2026-04-15 12:12 | 48.63694 | 11.29146 | 37224 ft | 488 kts | 112° |
| 2026-04-15 12:12 | 48.61379 | 11.38645 | 37223 ft | 480 kts | 101° |
| 2026-04-15 12:13 | 48.59462 | 11.48306 | 37222 ft | 480 kts | 102° |
| 2026-04-15 12:13 | 48.57416 | 11.57918 | 37209 ft | 480 kts | 102° |
| 2026-04-15 12:14 | 48.55791 | 11.67612 | 37224 ft | 474 kts | 96° |
| 2026-04-15 12:14 | 48.54429 | 11.77339 | 37242 ft | 474 kts | 97° |
| 2026-04-15 12:15 | 48.53033 | 11.87068 | 37226 ft | 474 kts | 97° |
| 2026-04-15 12:15 | 48.51615 | 11.96708 | 37225 ft | 474 kts | 97° |
| 2026-04-15 12:16 | 48.50180 | 12.06399 | 37220 ft | 473 kts | 97° |
| 2026-04-15 12:16 | 48.48734 | 12.16077 | 37230 ft | 473 kts | 98° |
| 2026-04-15 12:17 | 48.47269 | 12.25762 | 37232 ft | 474 kts | 98° |
| 2026-04-15 12:17 | 48.45797 | 12.35437 | 37232 ft | 474 kts | 98° |
| 2026-04-15 12:18 | 48.44559 | 12.43546 | 37223 ft | 474 kts | 98° |
| 2026-04-15 12:18 | 48.43083 | 12.53160 | 37231 ft | 474 kts | 98° |
| 2026-04-15 12:19 | 48.41592 | 12.62824 | 37231 ft | 474 kts | 98° |
| 2026-04-15 12:19 | 48.40093 | 12.72479 | 37230 ft | 474 kts | 98° |
| 2026-04-15 12:20 | 48.38153 | 12.81997 | 37242 ft | 478 kts | 105° |
| 2026-04-15 12:20 | 48.35899 | 12.91409 | 37223 ft | 479 kts | 105° |
| 2026-04-15 12:21 | 48.33664 | 13.00830 | 37241 ft | 478 kts | 105° |
| 2026-04-15 12:21 | 48.31451 | 13.10252 | 37219 ft | 478 kts | 105° |
| 2026-04-15 12:22 | 48.29230 | 13.19664 | 37226 ft | 478 kts | 105° |
| 2026-04-15 12:22 | 48.27020 | 13.29062 | 37224 ft | 478 kts | 105° |
| 2026-04-15 12:23 | 48.24809 | 13.38460 | 37222 ft | 478 kts | 105° |
| 2026-04-15 12:23 | 48.22529 | 13.47831 | 37222 ft | 480 kts | 109° |
| 2026-04-15 12:24 | 48.19327 | 13.56681 | 37218 ft | 485 kts | 119° |
| 2026-04-15 12:24 | 48.15656 | 13.65100 | 37214 ft | 486 kts | 119° |
| 2026-04-15 12:25 | 48.11956 | 13.73571 | 37210 ft | 486 kts | 119° |
| 2026-04-15 12:25 | 48.08280 | 13.82058 | 37215 ft | 486 kts | 119° |
| 2026-04-15 12:26 | 48.04612 | 13.90545 | 37202 ft | 485 kts | 119° |
| 2026-04-15 12:26 | 48.00945 | 13.99007 | 37202 ft | 485 kts | 120° |
| 2026-04-15 12:27 | 47.97275 | 14.07448 | 37202 ft | 484 kts | 120° |
| 2026-04-15 12:27 | 47.93597 | 14.15878 | 37213 ft | 484 kts | 121° |
| 2026-04-15 12:28 | 47.89916 | 14.24286 | 37201 ft | 484 kts | 121° |
| 2026-04-15 12:28 | 47.86228 | 14.32684 | 37199 ft | 484 kts | 121° |
| 2026-04-15 12:29 | 47.82534 | 14.41071 | 37192 ft | 484 kts | 121° |
| 2026-04-15 12:29 | 47.78837 | 14.49441 | 37202 ft | 484 kts | 121° |
| 2026-04-15 12:30 | 47.75130 | 14.57805 | 37193 ft | 484 kts | 121° |
| 2026-04-15 12:30 | 47.71418 | 14.66155 | 37197 ft | 484 kts | 121° |
| 2026-04-15 12:31 | 47.67707 | 14.74477 | 37193 ft | 483 kts | 122° |
| 2026-04-15 12:31 | 47.63990 | 14.82789 | 37212 ft | 484 kts | 122° |
| 2026-04-15 12:32 | 47.60262 | 14.91100 | 37199 ft | 484 kts | 122° |
| 2026-04-15 12:32 | 47.56525 | 14.99404 | 37194 ft | 484 kts | 122° |
| 2026-04-15 12:33 | 47.52783 | 15.07697 | 37198 ft | 484 kts | 122° |
| 2026-04-15 12:33 | 47.49059 | 15.15921 | 37192 ft | 484 kts | 122° |
| 2026-04-15 12:34 | 47.45309 | 15.24181 | 37206 ft | 483 kts | 123° |
| 2026-04-15 12:34 | 47.41556 | 15.32422 | 37204 ft | 484 kts | 123° |
| 2026-04-15 12:35 | 47.37798 | 15.40649 | 37199 ft | 483 kts | 123° |
| 2026-04-15 12:35 | 47.34040 | 15.48852 | 37201 ft | 483 kts | 123° |
| 2026-04-15 12:36 | 47.30279 | 15.57040 | 37206 ft | 482 kts | 124° |
| 2026-04-15 12:36 | 47.26503 | 15.65231 | 37183 ft | 482 kts | 124° |
| 2026-04-15 12:37 | 47.22729 | 15.73397 | 37206 ft | 482 kts | 124° |
| 2026-04-15 12:37 | 47.18950 | 15.81547 | 37199 ft | 482 kts | 124° |
| 2026-04-15 12:38 | 47.15168 | 15.89683 | 37204 ft | 482 kts | 124° |
| 2026-04-15 12:38 | 47.11375 | 15.97817 | 37206 ft | 483 kts | 124° |
| 2026-04-15 12:39 | 47.07574 | 16.05947 | 37203 ft | 483 kts | 124° |
| 2026-04-15 12:39 | 47.03770 | 16.14061 | 37199 ft | 483 kts | 124° |
| 2026-04-15 12:40 | 47.00232 | 16.22418 | 37199 ft | 483 kts | 116° |
| 2026-04-15 12:40 | 46.97763 | 16.31556 | 37200 ft | 483 kts | 107° |
| 2026-04-15 12:41 | 46.95828 | 16.40904 | 37203 ft | 483 kts | 107° |
| 2026-04-15 12:41 | 46.93857 | 16.50305 | 37198 ft | 483 kts | 107° |
| 2026-04-15 12:42 | 46.91842 | 16.59686 | 37183 ft | 484 kts | 108° |
| 2026-04-15 12:42 | 46.89809 | 16.69077 | 37203 ft | 484 kts | 108° |
| 2026-04-15 12:43 | 46.87744 | 16.78446 | 37188 ft | 485 kts | 110° |
| 2026-04-15 12:43 | 46.84838 | 16.87312 | 37181 ft | 484 kts | 122° |
| 2026-04-15 12:44 | 46.81225 | 16.95613 | 37175 ft | 485 kts | 123° |
| 2026-04-15 12:44 | 46.77588 | 17.03913 | 37194 ft | 486 kts | 123° |
| 2026-04-15 12:45 | 46.73966 | 17.12239 | 37196 ft | 487 kts | 123° |
| 2026-04-15 12:45 | 46.70349 | 17.20582 | 37192 ft | 487 kts | 123° |
| 2026-04-15 12:46 | 46.66725 | 17.28926 | 37164 ft | 487 kts | 123° |
| 2026-04-15 12:46 | 46.63094 | 17.37257 | 37192 ft | 487 kts | 123° |
| 2026-04-15 12:47 | 46.59454 | 17.45582 | 37187 ft | 487 kts | 123° |
| 2026-04-15 12:47 | 46.55809 | 17.53893 | 37188 ft | 487 kts | 123° |
| 2026-04-15 12:48 | 46.52165 | 17.62175 | 37189 ft | 487 kts | 124° |
| 2026-04-15 12:48 | 46.48517 | 17.70441 | 37177 ft | 486 kts | 124° |
| 2026-04-15 12:49 | 46.44867 | 17.78688 | 37188 ft | 485 kts | 124° |
| 2026-04-15 12:49 | 46.41243 | 17.86853 | 37186 ft | 485 kts | 124° |
| 2026-04-15 12:50 | 46.37590 | 17.95058 | 37176 ft | 485 kts | 124° |
| 2026-04-15 12:50 | 46.33931 | 18.03251 | 37181 ft | 484 kts | 124° |
| 2026-04-15 12:51 | 46.30271 | 18.11425 | 37176 ft | 484 kts | 124° |
| 2026-04-15 12:51 | 46.26605 | 18.19587 | 37186 ft | 484 kts | 124° |
| 2026-04-15 12:52 | 46.22933 | 18.27738 | 37184 ft | 484 kts | 124° |
| 2026-04-15 12:52 | 46.19256 | 18.35879 | 37183 ft | 484 kts | 124° |
| 2026-04-15 12:53 | 46.15569 | 18.44017 | 37183 ft | 484 kts | 124° |
| 2026-04-15 12:53 | 46.11876 | 18.52144 | 37183 ft | 484 kts | 124° |
| 2026-04-15 12:54 | 46.08179 | 18.60257 | 37181 ft | 484 kts | 124° |
| 2026-04-15 12:54 | 46.04479 | 18.68354 | 37179 ft | 484 kts | 125° |
| 2026-04-15 12:55 | 46.00773 | 18.76441 | 37179 ft | 484 kts | 125° |
| 2026-04-15 12:55 | 45.97059 | 18.84527 | 37180 ft | 484 kts | 125° |
| 2026-04-15 12:56 | 45.93321 | 18.92565 | 37180 ft | 484 kts | 127° |
| 2026-04-15 12:56 | 45.89022 | 18.99970 | 37192 ft | 482 kts | 133° |
| 2026-04-15 12:57 | 45.84571 | 19.07167 | 37176 ft | 483 kts | 133° |
| 2026-04-15 12:57 | 45.80153 | 19.14335 | 37180 ft | 483 kts | 133° |
| 2026-04-15 12:58 | 45.75719 | 19.21569 | 37176 ft | 483 kts | 133° |
| 2026-04-15 12:58 | 45.71287 | 19.28802 | 37172 ft | 483 kts | 133° |
| 2026-04-15 12:59 | 45.64631 | 19.39628 | 37178 ft | 483 kts | 133° |
| 2026-04-15 12:59 | 45.60186 | 19.46831 | 37175 ft | 483 kts | 133° |
| 2026-04-15 13:00 | 45.55736 | 19.54023 | 37176 ft | 483 kts | 133° |
| 2026-04-15 13:00 | 45.51280 | 19.61205 | 37176 ft | 483 kts | 133° |
| 2026-04-15 13:01 | 45.46826 | 19.68367 | 37171 ft | 483 kts | 133° |
| 2026-04-15 13:01 | 45.42363 | 19.75524 | 37167 ft | 483 kts | 133° |
| 2026-04-15 13:02 | 45.37902 | 19.82659 | 37171 ft | 482 kts | 133° |
| 2026-04-15 13:02 | 45.33439 | 19.89781 | 37168 ft | 482 kts | 133° |
| 2026-04-15 13:03 | 45.28971 | 19.96891 | 37169 ft | 482 kts | 133° |
| 2026-04-15 13:03 | 45.24501 | 20.03985 | 37168 ft | 482 kts | 133° |
| 2026-04-15 13:04 | 45.20029 | 20.11065 | 37167 ft | 481 kts | 134° |
| 2026-04-15 13:04 | 45.16316 | 20.16931 | 37171 ft | 482 kts | 134° |
| 2026-04-15 13:05 | 45.11838 | 20.23988 | 37161 ft | 481 kts | 134° |
| 2026-04-15 13:05 | 45.07360 | 20.31027 | 37163 ft | 480 kts | 134° |
| 2026-04-15 13:06 | 45.02887 | 20.38039 | 37159 ft | 480 kts | 134° |
| 2026-04-15 13:06 | 44.98410 | 20.45042 | 37157 ft | 480 kts | 134° |
| 2026-04-15 13:07 | 44.93933 | 20.52026 | 37157 ft | 480 kts | 134° |
| 2026-04-15 13:07 | 44.89453 | 20.58998 | 37156 ft | 480 kts | 134° |
| 2026-04-15 13:08 | 44.84966 | 20.65962 | 37143 ft | 480 kts | 134° |
| 2026-04-15 13:08 | 44.80502 | 20.72874 | 37142 ft | 480 kts | 134° |
| 2026-04-15 13:09 | 44.76001 | 20.79827 | 37133 ft | 480 kts | 134° |
| 2026-04-15 13:09 | 44.71497 | 20.86766 | 37133 ft | 480 kts | 134° |
| 2026-04-15 13:10 | 44.66986 | 20.93700 | 37128 ft | 481 kts | 134° |
| 2026-04-15 13:10 | 44.62469 | 21.00624 | 37123 ft | 481 kts | 134° |
| 2026-04-15 13:11 | 44.57944 | 21.07545 | 37113 ft | 481 kts | 134° |
| 2026-04-15 13:11 | 44.53420 | 21.14446 | 37116 ft | 481 kts | 134° |
| 2026-04-15 13:12 | 44.48894 | 21.21335 | 37109 ft | 481 kts | 135° |
| 2026-04-15 13:12 | 44.44359 | 21.28220 | 37112 ft | 481 kts | 135° |
| 2026-04-15 13:13 | 44.39821 | 21.35093 | 37109 ft | 481 kts | 135° |
| 2026-04-15 13:13 | 44.35287 | 21.41944 | 37100 ft | 481 kts | 135° |
| 2026-04-15 13:14 | 44.30740 | 21.48806 | 37109 ft | 481 kts | 135° |
| 2026-04-15 13:14 | 44.26214 | 21.55675 | 37116 ft | 481 kts | 134° |
| 2026-04-15 13:15 | 44.21673 | 21.62567 | 37109 ft | 482 kts | 135° |
| 2026-04-15 13:15 | 44.17140 | 21.69427 | 37102 ft | 481 kts | 135° |
| 2026-04-15 13:16 | 44.12601 | 21.76273 | 37114 ft | 481 kts | 135° |
| 2026-04-15 13:16 | 44.08058 | 21.83109 | 37126 ft | 481 kts | 135° |
| 2026-04-15 13:17 | 44.03505 | 21.89943 | 37123 ft | 481 kts | 135° |
| 2026-04-15 13:17 | 43.98952 | 21.96760 | 37109 ft | 481 kts | 135° |
| 2026-04-15 13:18 | 43.94407 | 22.03548 | 37122 ft | 480 kts | 135° |
| 2026-04-15 13:18 | 43.89853 | 22.10336 | 37124 ft | 480 kts | 135° |
| 2026-04-15 13:19 | 43.85295 | 22.17113 | 37119 ft | 481 kts | 135° |
| 2026-04-15 13:19 | 43.80734 | 22.23878 | 37126 ft | 481 kts | 135° |
| 2026-04-15 13:20 | 43.76193 | 22.30598 | 37121 ft | 481 kts | 135° |
| 2026-04-15 13:20 | 43.71623 | 22.37348 | 37122 ft | 481 kts | 135° |
| 2026-04-15 13:21 | 43.67563 | 22.44703 | 37118 ft | 483 kts | 124° |
| 2026-04-15 13:21 | 43.64423 | 22.52916 | 37128 ft | 484 kts | 118° |
| 2026-04-15 13:22 | 43.61429 | 22.61232 | 37124 ft | 484 kts | 118° |
| 2026-04-15 13:22 | 43.58407 | 22.69529 | 37132 ft | 484 kts | 118° |
| 2026-04-15 13:23 | 43.55353 | 22.77818 | 37125 ft | 485 kts | 119° |
| 2026-04-15 13:23 | 43.52286 | 22.86089 | 37139 ft | 485 kts | 119° |
| 2026-04-15 13:24 | 43.49209 | 22.94364 | 37140 ft | 486 kts | 119° |
| 2026-04-15 13:24 | 43.46122 | 23.02646 | 37132 ft | 486 kts | 119° |
| 2026-04-15 13:25 | 43.43028 | 23.10923 | 37143 ft | 487 kts | 119° |
| 2026-04-15 13:25 | 43.39925 | 23.19203 | 37154 ft | 487 kts | 119° |
| 2026-04-15 13:26 | 43.36814 | 23.27471 | 37148 ft | 487 kts | 119° |
| 2026-04-15 13:26 | 43.33720 | 23.35678 | 37150 ft | 487 kts | 119° |
| 2026-04-15 13:27 | 43.30598 | 23.43931 | 37149 ft | 487 kts | 120° |
| 2026-04-15 13:27 | 43.27473 | 23.52172 | 37175 ft | 486 kts | 120° |
| 2026-04-15 13:28 | 43.24343 | 23.60396 | 37162 ft | 486 kts | 120° |
| 2026-04-15 13:28 | 43.21208 | 23.68616 | 37162 ft | 487 kts | 120° |
| 2026-04-15 13:29 | 43.18066 | 23.76827 | 37173 ft | 487 kts | 120° |
| 2026-04-15 13:29 | 43.14913 | 23.85042 | 37174 ft | 487 kts | 120° |
| 2026-04-15 13:30 | 43.11758 | 23.93239 | 37178 ft | 487 kts | 120° |
| 2026-04-15 13:30 | 43.08590 | 24.01447 | 37176 ft | 488 kts | 120° |
| 2026-04-15 13:31 | 43.05416 | 24.09646 | 37198 ft | 488 kts | 120° |
| 2026-04-15 13:31 | 43.02229 | 24.17856 | 37194 ft | 488 kts | 120° |
| 2026-04-15 13:32 | 42.99037 | 24.26056 | 37169 ft | 489 kts | 120° |
| 2026-04-15 13:32 | 42.95838 | 24.34251 | 37173 ft | 490 kts | 121° |
| 2026-04-15 13:33 | 42.92624 | 24.42458 | 37193 ft | 490 kts | 121° |
| 2026-04-15 13:33 | 42.89428 | 24.50599 | 37207 ft | 490 kts | 121° |
| 2026-04-15 13:34 | 42.86205 | 24.58791 | 37177 ft | 491 kts | 121° |
| 2026-04-15 13:34 | 42.82971 | 24.66981 | 37195 ft | 491 kts | 121° |
| 2026-04-15 13:35 | 42.79728 | 24.75169 | 37194 ft | 491 kts | 121° |
| 2026-04-15 13:35 | 42.76482 | 24.83349 | 37180 ft | 492 kts | 121° |
| 2026-04-15 13:36 | 42.73229 | 24.91526 | 37189 ft | 491 kts | 121° |
| 2026-04-15 13:36 | 42.69970 | 24.99697 | 37204 ft | 491 kts | 121° |
| 2026-04-15 13:37 | 42.66704 | 25.07860 | 37203 ft | 492 kts | 121° |
| 2026-04-15 13:37 | 42.63424 | 25.16033 | 37186 ft | 493 kts | 121° |
| 2026-04-15 13:38 | 42.60137 | 25.24204 | 37183 ft | 493 kts | 121° |
| 2026-04-15 13:38 | 42.56864 | 25.32316 | 37195 ft | 493 kts | 121° |
| 2026-04-15 13:39 | 42.53564 | 25.40472 | 37184 ft | 493 kts | 122° |
| 2026-04-15 13:39 | 42.50259 | 25.48618 | 37200 ft | 492 kts | 122° |
| 2026-04-15 13:40 | 42.46955 | 25.56738 | 37197 ft | 492 kts | 122° |
| 2026-04-15 13:40 | 42.43645 | 25.64850 | 37193 ft | 492 kts | 122° |
| 2026-04-15 13:41 | 42.40327 | 25.72959 | 37202 ft | 492 kts | 122° |
| 2026-04-15 13:41 | 42.37007 | 25.81052 | 37201 ft | 492 kts | 122° |
| 2026-04-15 13:42 | 42.33679 | 25.89142 | 37209 ft | 493 kts | 122° |
| 2026-04-15 13:42 | 42.30363 | 25.97179 | 37197 ft | 493 kts | 122° |
| 2026-04-15 13:43 | 42.27017 | 26.05273 | 37205 ft | 494 kts | 122° |
| 2026-04-15 13:43 | 42.23659 | 26.13366 | 37205 ft | 494 kts | 122° |
| 2026-04-15 13:44 | 42.20295 | 26.21444 | 37191 ft | 491 kts | 123° |
| 2026-04-15 13:44 | 42.18636 | 26.25427 | 37057 ft | 484 kts | 123° |
| 2026-04-15 13:44 | 42.16991 | 26.29369 | 36616 ft | 481 kts | 123° |
| 2026-04-15 13:45 | 42.15359 | 26.33272 | 36219 ft | 475 kts | 123° |
| 2026-04-15 13:45 | 42.13743 | 26.37135 | 35797 ft | 471 kts | 123° |
| 2026-04-15 13:45 | 42.12139 | 26.40959 | 35364 ft | 467 kts | 123° |
| 2026-04-15 13:47 | 42.01220 | 26.66875 | 32277 ft | 444 kts | 123° |
| 2026-04-15 13:47 | 41.99696 | 26.70478 | 31851 ft | 441 kts | 123° |
| 2026-04-15 13:47 | 41.98182 | 26.74048 | 31441 ft | 438 kts | 123° |
| 2026-04-15 13:48 | 41.96674 | 26.77587 | 31028 ft | 435 kts | 124° |
| 2026-04-15 13:48 | 41.95130 | 26.81059 | 30663 ft | 432 kts | 125° |
| 2026-04-15 13:48 | 41.93564 | 26.84493 | 30281 ft | 430 kts | 125° |
| 2026-04-15 13:48 | 41.92002 | 26.87921 | 29840 ft | 430 kts | 125° |
| 2026-04-15 13:49 | 41.90447 | 26.91351 | 29438 ft | 429 kts | 125° |
| 2026-04-15 13:49 | 41.88908 | 26.94754 | 29053 ft | 424 kts | 125° |
| 2026-04-15 13:49 | 41.87381 | 26.98119 | 28676 ft | 420 kts | 125° |
| 2026-04-15 13:49 | 41.85868 | 27.01443 | 28292 ft | 415 kts | 125° |
| 2026-04-15 13:50 | 41.84367 | 27.04737 | 27935 ft | 413 kts | 125° |
| 2026-04-15 13:50 | 41.82869 | 27.08023 | 27572 ft | 413 kts | 125° |
| 2026-04-15 13:50 | 41.81368 | 27.11310 | 27209 ft | 414 kts | 125° |
| 2026-04-15 13:50 | 41.79831 | 27.14555 | 26792 ft | 411 kts | 127° |
| 2026-04-15 13:51 | 41.78219 | 27.17694 | 26379 ft | 408 kts | 128° |
| 2026-04-15 13:51 | 41.76589 | 27.20794 | 25965 ft | 405 kts | 128° |
| 2026-04-15 13:51 | 41.74979 | 27.23874 | 25557 ft | 403 kts | 128° |
| 2026-04-15 13:51 | 41.73387 | 27.26955 | 25146 ft | 401 kts | 127° |
| 2026-04-15 13:52 | 41.71808 | 27.30029 | 24741 ft | 399 kts | 127° |
| 2026-04-15 13:52 | 41.70185 | 27.33001 | 24317 ft | 391 kts | 136° |
| 2026-04-15 13:52 | 41.68072 | 27.35195 | 23939 ft | 381 kts | 156° |
| 2026-04-15 13:52 | 41.65633 | 27.36395 | 23525 ft | 369 kts | 168° |
| 2026-04-15 13:53 | 41.63215 | 27.37512 | 22914 ft | 365 kts | 158° |
| 2026-04-15 13:53 | 41.61031 | 27.39157 | 22514 ft | 357 kts | 151° |
| 2026-04-15 13:53 | 41.58921 | 27.40900 | 22144 ft | 366 kts | 152° |
| 2026-04-15 13:53 | 41.56724 | 27.42678 | 21729 ft | 371 kts | 152° |
| 2026-04-15 13:54 | 41.54514 | 27.44449 | 21338 ft | 370 kts | 152° |
| 2026-04-15 13:54 | 41.52312 | 27.46204 | 20931 ft | 368 kts | 152° |
| 2026-04-15 13:54 | 41.50123 | 27.47942 | 20537 ft | 365 kts | 152° |
| 2026-04-15 13:54 | 41.47947 | 27.49666 | 20136 ft | 363 kts | 152° |
| 2026-04-15 13:55 | 41.45780 | 27.51379 | 19766 ft | 361 kts | 152° |
| 2026-04-15 13:55 | 41.43627 | 27.53080 | 19374 ft | 359 kts | 152° |
| 2026-04-15 13:55 | 41.41486 | 27.54768 | 19006 ft | 357 kts | 152° |
| 2026-04-15 13:55 | 41.39360 | 27.56445 | 18624 ft | 355 kts | 151° |
| 2026-04-15 13:56 | 41.37926 | 27.57575 | 18353 ft | 354 kts | 151° |
| 2026-04-15 13:56 | 41.35812 | 27.59239 | 17927 ft | 351 kts | 151° |
| 2026-04-15 13:56 | 41.33718 | 27.60887 | 17535 ft | 349 kts | 151° |
| 2026-04-15 13:56 | 41.31635 | 27.62524 | 17160 ft | 346 kts | 151° |
| 2026-04-15 13:57 | 41.29572 | 27.64146 | 16788 ft | 344 kts | 152° |
| 2026-04-15 13:57 | 41.27521 | 27.65756 | 16421 ft | 341 kts | 151° |
| 2026-04-15 13:57 | 41.25489 | 27.67350 | 16051 ft | 338 kts | 151° |
| 2026-04-15 13:57 | 41.23468 | 27.68934 | 15688 ft | 336 kts | 151° |
| 2026-04-15 13:58 | 41.21490 | 27.70483 | 15338 ft | 334 kts | 152° |
| 2026-04-15 13:58 | 41.19495 | 27.72045 | 14985 ft | 332 kts | 152° |
| 2026-04-15 13:58 | 41.17488 | 27.73615 | 14628 ft | 330 kts | 152° |
| 2026-04-15 13:58 | 41.15542 | 27.75136 | 14284 ft | 328 kts | 151° |
| 2026-04-15 13:59 | 41.13580 | 27.76668 | 13912 ft | 326 kts | 150° |
| 2026-04-15 13:59 | 41.11629 | 27.78191 | 13527 ft | 324 kts | 150° |
| 2026-04-15 13:59 | 41.09691 | 27.79703 | 13173 ft | 322 kts | 151° |
| 2026-04-15 13:59 | 41.07767 | 27.81204 | 12807 ft | 320 kts | 150° |
| 2026-04-15 14:00 | 41.05853 | 27.82697 | 12466 ft | 318 kts | 150° |
| 2026-04-15 14:00 | 41.03952 | 27.84177 | 12054 ft | 318 kts | 151° |
| 2026-04-15 14:00 | 41.02036 | 27.85667 | 11611 ft | 320 kts | 151° |
| 2026-04-15 14:00 | 41.00126 | 27.87152 | 11252 ft | 318 kts | 151° |
| 2026-04-15 14:01 | 40.96328 | 27.90102 | 10557 ft | 315 kts | 151° |
| 2026-04-15 14:01 | 40.94565 | 27.91722 | 10196 ft | 302 kts | 134° |
| 2026-04-15 14:01 | 40.93504 | 27.94018 | 9854 ft | 287 kts | 108° |
| 2026-04-15 14:02 | 40.93197 | 27.96529 | 9668 ft | 274 kts | 91° |
| 2026-04-15 14:02 | 40.93144 | 27.99125 | 9577 ft | 289 kts | 90° |
| 2026-04-15 14:02 | 40.93109 | 28.01806 | 9408 ft | 293 kts | 90° |
| 2026-04-15 14:02 | 40.93076 | 28.04497 | 9239 ft | 291 kts | 90° |
| 2026-04-15 14:03 | 40.93041 | 28.07152 | 9086 ft | 287 kts | 90° |
| 2026-04-15 14:03 | 40.93003 | 28.09774 | 8909 ft | 283 kts | 90° |
| 2026-04-15 14:03 | 40.92961 | 28.12357 | 8754 ft | 280 kts | 90° |
| 2026-04-15 14:03 | 40.92918 | 28.14939 | 8616 ft | 281 kts | 90° |
| 2026-04-15 14:04 | 40.92872 | 28.17535 | 8474 ft | 283 kts | 90° |
| 2026-04-15 14:04 | 40.92824 | 28.20138 | 8316 ft | 283 kts | 90° |
| 2026-04-15 14:04 | 40.92775 | 28.22739 | 8158 ft | 283 kts | 90° |
| 2026-04-15 14:04 | 40.92725 | 28.25338 | 8016 ft | 283 kts | 90° |
| 2026-04-15 14:05 | 40.92674 | 28.27934 | 7854 ft | 282 kts | 90° |
| 2026-04-15 14:05 | 40.92622 | 28.30522 | 7704 ft | 281 kts | 90° |
| 2026-04-15 14:05 | 40.92570 | 28.33104 | 7544 ft | 280 kts | 90° |
| 2026-04-15 14:05 | 40.92517 | 28.35678 | 7406 ft | 280 kts | 90° |
| 2026-04-15 14:06 | 40.92463 | 28.38240 | 7258 ft | 279 kts | 90° |
| 2026-04-15 14:06 | 40.92409 | 28.40796 | 7106 ft | 278 kts | 89° |
| 2026-04-15 14:06 | 40.92356 | 28.43345 | 6958 ft | 277 kts | 90° |
| 2026-04-15 14:06 | 40.92302 | 28.45881 | 6795 ft | 276 kts | 90° |
| 2026-04-15 14:07 | 40.92247 | 28.48407 | 6683 ft | 274 kts | 90° |
| 2026-04-15 14:07 | 40.92192 | 28.50902 | 6537 ft | 269 kts | 90° |
| 2026-04-15 14:07 | 40.92139 | 28.53308 | 6355 ft | 263 kts | 90° |
| 2026-04-15 14:07 | 40.92085 | 28.55728 | 6130 ft | 258 kts | 90° |
| 2026-04-15 14:08 | 40.92033 | 28.58104 | 5801 ft | 258 kts | 90° |
| 2026-04-15 14:08 | 40.91980 | 28.60444 | 5520 ft | 257 kts | 91° |
| 2026-04-15 14:08 | 40.91927 | 28.62782 | 5284 ft | 253 kts | 91° |
| 2026-04-15 14:08 | 40.91872 | 28.65097 | 5070 ft | 249 kts | 91° |
| 2026-04-15 14:09 | 40.91873 | 28.67347 | 4976 ft | 244 kts | 80° |
| 2026-04-15 14:09 | 40.92584 | 28.69388 | 4997 ft | 251 kts | 45° |
| 2026-04-15 14:09 | 40.93998 | 28.70721 | 4978 ft | 251 kts | 26° |
| 2026-04-15 14:09 | 40.95516 | 28.71811 | 4966 ft | 244 kts | 27° |
| 2026-04-15 14:10 | 40.96960 | 28.72856 | 4949 ft | 228 kts | 22° |
| 2026-04-15 14:10 | 40.98441 | 28.73301 | 4968 ft | 216 kts | 0° |
| 2026-04-15 14:10 | 40.99943 | 28.73337 | 4960 ft | 215 kts | 359° |
| 2026-04-15 14:10 | 41.01437 | 28.73337 | 5022 ft | 213 kts | 357° |
| 2026-04-15 14:11 | 41.02950 | 28.73312 | 4911 ft | 227 kts | 357° |
| 2026-04-15 14:11 | 41.04586 | 28.73276 | 4600 ft | 242 kts | 359° |
| 2026-04-15 14:11 | 41.06299 | 28.73235 | 4219 ft | 244 kts | 358° |
| 2026-04-15 14:11 | 41.07936 | 28.73198 | 3942 ft | 226 kts | 358° |
| 2026-04-15 14:12 | 41.09452 | 28.73164 | 3642 ft | 208 kts | 359° |
| 2026-04-15 14:12 | 41.10845 | 28.73132 | 3372 ft | 192 kts | 359° |
| 2026-04-15 14:12 | 41.12109 | 28.73102 | 3144 ft | 170 kts | 360° |
| 2026-04-15 14:12 | 41.13218 | 28.73075 | 2962 ft | 150 kts | 0° |
| 2026-04-15 14:13 | 41.14249 | 28.73052 | 2766 ft | 148 kts | 1° |
| 2026-04-15 14:13 | 41.15279 | 28.73030 | 2590 ft | 150 kts | 0° |
| 2026-04-15 14:13 | 41.16329 | 28.73003 | 2396 ft | 152 kts | 2° |
| 2026-04-15 14:13 | 41.17393 | 28.72978 | 2154 ft | 152 kts | 5° |
| 2026-04-15 14:14 | 41.18418 | 28.72955 | 1942 ft | 142 kts | 4° |
| 2026-04-15 14:14 | 41.19378 | 28.72935 | 1762 ft | 135 kts | 4° |
| 2026-04-15 14:14 | 41.20317 | 28.72914 | 1576 ft | 136 kts | 3° |
| 2026-04-15 14:14 | 41.21262 | 28.72890 | 1401 ft | 134 kts | 4° |
| 2026-04-15 14:15 | 41.22190 | 28.72874 | 1197 ft | 133 kts | 4° |
| 2026-04-15 14:15 | 41.23133 | 28.72852 | 1009 ft | 138 kts | 4° |
| 2026-04-15 14:15 | 41.24069 | 28.72820 | 791 ft | 129 kts | 4° |
| 2026-04-15 14:15 | 41.24958 | 28.72805 | 610 ft | 128 kts | 2° |
| 2026-04-15 14:16 | 41.25843 | 28.72784 | 466 ft | 132 kts | 2° |
| 2026-04-15 14:16 | 41.26757 | 28.72761 | 349 ft | 129 kts | 2° |
| 2026-04-15 14:16 | 41.27555 | 28.72748 | 338 ft | 101 kts | 359° |
| 2026-04-15 14:16 | 41.28160 | 28.72733 | 336 ft | 63 kts | 360° |
| 2026-04-15 14:17 | 41.28473 | 28.72732 | 337 ft | 33 kts | 6° |
| 2026-04-15 14:17 | 41.28664 | 28.72822 | 336 ft | 23 kts | 28° |
| 2026-04-15 14:17 | 41.28729 | 28.72905 | 334 ft | 3 kts | 104° |
| 2026-04-15 14:17 | 41.28701 | 28.72936 | 337 ft | 11 kts | 160° |
| 2026-04-15 14:18 | 41.28591 | 28.72948 | 336 ft | 16 kts | 179° |
| 2026-04-15 14:18 | 41.28481 | 28.72951 | 337 ft | 16 kts | 179° |
| 2026-04-15 14:18 | 41.28371 | 28.72954 | 335 ft | 16 kts | 179° |
| 2026-04-15 14:18 | 41.28261 | 28.72957 | 336 ft | 16 kts | 179° |
| 2026-04-15 14:19 | 41.28151 | 28.72959 | 337 ft | 16 kts | 179° |
| 2026-04-15 14:19 | 41.28041 | 28.72960 | 335 ft | 16 kts | 179° |
| 2026-04-15 14:19 | 41.27932 | 28.72964 | 336 ft | 16 kts | 178° |
| 2026-04-15 14:19 | 41.27822 | 28.72967 | 336 ft | 16 kts | 179° |
| 2026-04-15 14:20 | 41.27712 | 28.72969 | 335 ft | 16 kts | 179° |
| 2026-04-15 14:20 | 41.27602 | 28.72972 | 336 ft | 16 kts | 179° |
| 2026-04-15 14:20 | 41.27492 | 28.72975 | 336 ft | 16 kts | 179° |
| 2026-04-15 14:20 | 41.27382 | 28.72978 | 335 ft | 16 kts | 179° |
| 2026-04-15 14:21 | 41.27273 | 28.72980 | 336 ft | 16 kts | 179° |
| 2026-04-15 14:21 | 41.27163 | 28.72982 | 335 ft | 16 kts | 179° |
| 2026-04-15 14:21 | 41.27053 | 28.72985 | 334 ft | 16 kts | 179° |
| 2026-04-15 14:21 | 41.26960 | 28.73031 | 334 ft | 15 kts | 110° |
| 2026-04-15 14:22 | 41.26954 | 28.73168 | 339 ft | 15 kts | 89° |
| 2026-04-15 14:22 | 41.26957 | 28.73306 | 335 ft | 15 kts | 89° |
| 2026-04-15 14:22 | 41.26958 | 28.73445 | 335 ft | 15 kts | 89° |
| 2026-04-15 14:22 | 41.26961 | 28.73588 | 339 ft | 15 kts | 89° |
| 2026-04-15 14:23 | 41.26962 | 28.73731 | 339 ft | 15 kts | 89° |
| 2026-04-15 14:23 | 41.26947 | 28.73851 | 333 ft | 12 kts | 138° |
| 2026-04-15 14:23 | 41.26864 | 28.73872 | 336 ft | 13 kts | 177° |
| 2026-04-15 14:23 | 41.26799 | 28.73828 | 335 ft | 9 kts | 248° |
| 2026-04-15 14:24 | 41.26793 | 28.73770 | 336 ft | 3 kts | 266° |
| 2026-04-15 14:24 | 41.26792 | 28.73764 | 336 ft | 0 kts | 268° |